Mesquite, Nevada Weather observations

Data are for observation ending at time listed.
 Day   Time    Ave.   Ave.  Ave.  Vector   Max.   Stn.    Total    Solar   Ave.  
  of    of     Air    Rel.  Wind   Wind    Wind   Baro.  Precip.   Rad.    Soil  
Year   Day     Temp.  Hum.  Speed  Dir.    Gust   Pres.                    Temp. 
2015   (PST)    F      %     mph   deg.    mph     mb.     in.     W/m2     F   
------------------------------------------------------------------------------
  63   13:30   57.7    25    4.1    30      8.3   956.9    0.00     520    74.9
  63   13:40   57.8    24    4.9    32      9.5   956.8    0.00     509    75.3
  63   13:50   58.2    24    6.2    52      9.7   956.8    0.00     496    74.4
  63   14:00   57.6    24    3.5    55      9.9   956.8    0.00     481    71.9
  63   14:10   57.7    23    2.9    16      7.0   956.8    0.00     466    70.9
  63   14:20   58.4    23    1.8   337      5.8   956.8    0.00     449    74.2
  63   14:30   58.5    22    1.7     0      5.8   956.8    0.00     430    74.3
  63   14:40   58.7    23    4.1    88      7.3   956.7    0.00     411    75.8
  63   14:50   58.1    23    3.3    99      8.1   956.7    0.00     388    75.9
  63   15:00   58.7    23    2.7    96      7.0   956.7    0.00     367    73.8
  63   15:10   59.1    21    3.0    34      8.3   956.7    0.00     344    72.6
  63   15:20   59.0    22    3.0    70      7.0   956.8    0.00     321    73.3
  63   15:30   59.2    22    4.9    66      8.3   956.8    0.00     297    74.8
  63   15:40   59.2    22    3.4    63      6.1   956.9    0.00     272    73.6
  63   15:50   59.3    22    4.3    97      7.7   956.9    0.00     248    74.0
  63   16:00   59.5    22    3.1    90      9.1   956.9    0.00     224    73.5
  63   16:10   59.6    21    2.8    50      6.1   956.9    0.00     199    71.9
  63   16:20   59.6    20    4.5     3      7.9   957.0    0.00     173    70.4
  63   16:30   59.3    20    4.6    33      7.7   957.0    0.00     148    69.7
  63   16:40   59.6    20    5.3   346      9.1   957.0    0.00     124    67.9
  63   16:50   59.2    20    4.7   359     10.0   957.1    0.00     101    67.0
  63   17:00   58.7    22    6.3   359     13.1   957.2    0.00      76    65.0
  63   17:10   58.0    23    6.4   355     11.3   957.4    0.00      50    60.2
  63   17:20   56.9    25    6.9   354     11.3   957.5    0.00      25    58.4
  63   17:30   55.8    27    7.5   357     13.8   957.6    0.00      10    57.2
  63   17:40   55.1    27    8.3     4     13.3   957.6    0.00       5    56.2
  63   17:50   54.6    28    6.8     8      9.9   957.7    0.00       2    55.4
  63   18:00   54.0    28    6.7    14     10.0   957.9    0.00       0    54.7
  63   18:10   53.6    29    6.5    12      9.4   958.0    0.00       0    54.1
  63   18:20   53.2    29    5.9     9      8.3   958.1    0.00       0    53.6
  63   18:30   53.6    27    5.2   356      9.9   958.2    0.00       0    53.7
  63   18:40   53.1    29    4.0   322      6.0   958.4    0.00       0    53.1
  63   18:50   52.5    30    5.0   294      6.9   958.5    0.00       0    52.8
  63   19:00   52.0    32    3.2   299      5.8   958.7    0.00       0    51.9
  63   19:10   50.6    34    3.1    97      6.6   958.9    0.00       0    51.3
  63   19:20   51.7    29    3.3   339      6.1   958.9    0.00       0    51.7
  63   19:30   51.2    30    3.0   345      5.6   959.1    0.00       0    50.8
  63   19:40   50.2    34    3.2    30      6.4   959.2    0.00       0    49.7
  63   19:50   49.4    35    4.7   348      7.8   959.3    0.00       0    49.8
  63   20:00   49.7    33    4.2   307      7.6   959.4    0.00       0    50.0
  63   20:10   50.1    34    2.0   117      4.2   959.5    0.00       0    49.8
  63   20:20   48.1    39    4.8    31     10.0   959.7    0.00       0    48.3
  63   20:30   48.9    36    3.8    22      6.4   959.8    0.00       0    48.8
  63   20:40   48.4    37    4.0    24      8.3   959.9    0.00       0    48.4
  63   20:50   47.7    40    4.3    40      7.5   960.0    0.00       0    47.6
  63   21:00   46.9    44    3.4    58      5.9   960.2    0.00       0    46.8
  63   21:10   44.7    59    4.7    80      6.2   960.3    0.00       0    45.5
  63   21:20   43.5    65    4.1    53      5.2   960.4    0.00       0    45.2
  63   21:30   44.4    57    4.2    28      7.5   960.6    0.00       0    45.9
  63   21:40   45.6    48    4.5     9      7.2   960.7    0.00       0    46.3
  63   21:50   45.7    47    4.0   349      7.1   960.8    0.00       0    46.1
  63   22:00   45.4    49    4.4    20      6.4   960.9    0.00       0    45.5
  63   22:10   44.3    53    4.0    29      7.3   960.9    0.00       0    45.0
  63   22:20   44.5    52    3.1   313      4.7   961.1    0.00       0    45.3
  63   22:30   45.7    47    3.3   337      6.7   961.1    0.00       0    45.8
  63   22:40   45.1    48    4.2    14      6.4   961.1    0.00       0    45.1
  63   22:50   44.5    48    3.8    17      5.6   961.2    0.00       0    44.8
  63   23:00   43.6    54    2.4   107      3.7   961.3    0.00       0    43.8
  63   23:10   41.4    66    4.5    96      5.9   961.2    0.00       0    42.4
  63   23:20   40.2    71    3.0    96      5.0   961.2    0.00       0    42.0
  63   23:30   40.5    70    2.2    93      2.9   961.2    0.00       0    42.4
  63   23:40   41.0    67    2.0    83      3.3   961.2    0.00       0    42.3
  63   23:50   40.9    65    3.8    90      5.5   961.2    0.00       0    41.8
  64    0:00   39.6    70    4.7    93      5.7   961.3    0.00       0    41.1
  64    0:10   39.8    71    4.5    64      5.8   961.4    0.00       0    41.4
  64    0:20   40.2    66    3.9    34      6.7   961.4    0.00       0    41.4
  64    0:30   41.3    58    4.1   348      6.4   961.5    0.00       0    42.5
  64    0:40   41.4    58    3.8    21      5.6   961.6    0.00       0    41.9
  64    0:50   40.6    61    4.6    59      6.1   961.7    0.00       0    41.1
  64    1:00   39.3    68    4.9    86      6.2   961.9    0.00       0    40.4
  64    1:10   38.6    71    2.6    23      4.2   961.9    0.00       0    40.2
  64    1:20   39.5    66    1.6    10      3.5   962.0    0.00       0    40.6
  64    1:30   40.4    61    1.4    92      2.5   962.0    0.00       0    40.9
  64    1:40   39.8    63    3.0    51      4.7   962.0    0.00       0    40.0
  64    1:50   38.4    69    3.9    43      4.8   962.0    0.00       0    39.5
  64    2:00   38.3    68    3.5    15      5.3   962.0    0.00       0    40.4
  64    2:10   39.4    63    2.3    77      4.1   962.0    0.00       0    40.0
  64    2:20   37.5    75    4.3    79      6.1   961.9    0.00       0    38.9
  64    2:30   36.8    80    3.4    91      5.2   962.0    0.00       0    38.7
  64    2:40   37.6    76    4.4   120      5.7   962.0    0.00       0    39.0
  64    2:50   37.3    75    3.0    82      4.8   961.9    0.00       0    38.7
  64    3:00   37.3    75    2.8    94      3.4   961.9    0.00       0    38.7
  64    3:10   37.4    74    2.2    69      3.7   962.0    0.00       0    38.7
  64    3:20   37.5    72    2.1    88      3.0   962.0    0.00       0    38.8
  64    3:30   37.5    72    2.2    79      3.2   962.1    0.00       0    38.3
  64    3:40   36.9    74    2.5    73      3.6   962.1    0.00       0    37.6
  64    3:50   36.6    77    1.2    72      2.3   962.1    0.00       0    37.7
  64    4:00   36.8    76    0.8   109      2.0   962.3    0.00       0    37.6
  64    4:10   36.8    75    0.8    53      2.1   962.4    0.00       0    38.2
  64    4:20   36.2    76    2.2    40      3.0   962.5    0.00       0    37.5
  64    4:30   35.5    78    3.8    42      5.0   962.6    0.00       0    37.0
  64    4:40   35.4    78    3.9    34      6.1   962.7    0.00       0    37.4
  64    4:50   36.4    73    5.0    22      6.2   962.8    0.00       0    37.6
  64    5:00   36.2    73    3.6    31      5.3   963.0    0.00       0    37.5
  64    5:10   36.3    73    4.3    37      5.6   963.1    0.00       0    37.6
  64    5:20   36.5    72    4.1    65      5.0   963.2    0.00       0    37.2
  64    5:30   35.1    77    3.5    79      4.1   963.2    0.00       0    36.4
  64    5:40   34.2    81    3.5    69      5.0   963.3    0.00       0    36.1
  64    5:50   34.0    83    3.4    62      4.2   963.3    0.00       0    36.1
  64    6:00   34.9    81    2.2   328      4.3   963.4    0.00       0    36.6
  64    6:10   36.3    72    2.0    10      2.9   963.4    0.00       4    37.6
  64    6:20   37.5    66    3.2    40      5.0   963.5    0.00       7    37.9
  64    6:30   37.3    66    2.2    36      3.7   963.6    0.00       9    37.7
  64    6:40   36.4    72    2.1   104      3.2   963.7    0.00      15    37.2
  64    6:50   38.3    68    3.6    73      5.9   963.8    0.00      72    39.0
  64    7:00   40.3    61    2.6    86      4.9   964.0    0.00     102    39.9
  64    7:10   42.9    55    1.2    80      3.7   964.1    0.00     127    41.5
  64    7:20   43.3    55    2.5   174      5.0   964.4    0.00     152    41.3
  64    7:30   42.9    56    1.6   179      3.6   964.6    0.00     177    42.6
  64    7:40   44.7    51    1.7    79      3.1   964.8    0.00     202    46.0
  64    7:50   44.9    52    3.3    34      6.6   965.0    0.00     228    46.9
  64    8:00   45.0    53    4.2    42      7.2   965.3    0.00     254    48.9
  64    8:10   46.0    51    4.3    93      6.7   965.1    0.00     279    51.0
  64    8:20   46.3    54    4.7   128      6.9   964.9    0.00     304    49.8
  64    8:30   47.1    50    2.8   137      4.7   965.0    0.00     328    50.6
  64    8:40   48.5    44    1.3   118      2.9   965.1    0.00     352    52.8
  64    8:50   48.9    44    2.5    62      4.2   965.0    0.00     376    57.9
  64    9:00   49.4    44    2.6    19      4.5   965.0    0.00     396    58.1
  64    9:10   50.7    39    3.0    63      4.5   964.9    0.00     416    61.3
  64    9:20   51.7    36    3.1    77      4.9   964.9    0.00     435    63.2
  64    9:30   52.2    35    3.6    85      5.6   964.9    0.00     454    64.8
  64    9:40   52.3    33    4.6    84      7.1   965.0    0.00     471    65.5
  64    9:50   52.6    32    3.0    51      6.1   965.1    0.00     488    66.4
  64   10:00   53.9    33    3.9    74      6.1   965.1    0.00     503    67.9
  64   10:10   53.9    32    3.7    84      8.0   965.1    0.00     517    69.9
  64   10:20   54.1    32    3.3    86      6.8   965.1    0.00     530    68.0
  64   10:30   54.4    32    2.8    38      6.9   965.0    0.00     542    68.5
  64   10:40   54.8    31    3.6    97      8.0   964.9    0.00     551    71.4
  64   10:50   55.4    30    3.8    78      6.5   964.8    0.00     560    73.0
  64   11:00   55.5    30    2.9    79      5.6   964.7    0.00     569    72.6
  64   11:10   56.3    28    1.5    29      5.3   964.6    0.00     577    73.0
  64   11:20   57.7    27    1.7    33      4.5   964.6    0.00     583    73.6
  64   11:30   57.9    28    3.2    69      6.4   964.4    0.00     587    77.2
  64   11:40   57.3    29    3.5    96      7.9   964.2    0.00     588    76.7
  64   11:50   57.6    28    2.2    42      4.2   964.0    0.00     590    77.4
  64   12:00   57.5    26    2.6     5      4.7   963.7    0.00     591    77.6
  64   12:10   57.9    25    2.8   326      5.4   963.6    0.00     590    74.2
  64   12:20   58.7    25    3.0    10      6.4   963.5    0.00     588    78.0
  64   12:30   59.3    24    2.6    62      7.2   963.3    0.00     586    78.2
  64   12:40   59.3    23    2.5   170      4.7   963.1    0.00     582    74.1
  64   12:50   60.0    23    3.2    91      6.1   963.0    0.00     574    81.6
  64   13:00   60.2    23    3.6   109      6.9   962.8    0.00     565    78.8
  64   13:10   60.7    23    3.0    81      6.4   962.6    0.00     555    82.0
  64   13:20   60.9    22    3.2   104      6.5   962.5    0.00     546    80.5

Return to Mesquite, Nevada graphs page.


Western Regional Climate Center,wrcc@dri.edu